Time;durP1;ratioP1;P1;durP2;ratioP2;P2;SDS_P1;SDS_P2;PMS_P1;PMS_P2;Temp;Humidity;BMP_temperature;BMP_pressure;BME280_temperature;BME280_humidity;BME280_pressure;Samples;Min_cycle;Max_cycle;Signal;HPM_P1;HPM_P2
2024/03/12 00:00:15;;;;;;;;;;;;;;;;;;5084089;28;19974;-58
2024/03/12 00:02:44;;;;;;;;;;;;;;;;;;5090845;28;19958;-57
2024/03/12 00:05:09;;;;;;;;;;;;;;;;;;5078450;28;20442;-58
2024/03/12 00:07:34;;;;;;;;;;;;;;;;;;5086506;28;19920;-57
2024/03/12 00:10:00;;;;;;;;;;;;;;;;;;5079975;28;19958;-56
2024/03/12 00:12:25;;;;;;;;;;;;;;;;;;5080285;28;19922;-58
2024/03/12 00:14:50;;;;;;;;;;;;;;;;;;5081631;28;19923;-57
2024/03/12 00:17:15;;;;;;;;;;;;;;;;;;5084339;28;19927;-58
2024/03/12 00:19:41;;;;;;;;;;;;;;;;;;5086767;28;19938;-58
2024/03/12 00:22:09;;;;;;;;;;;;;;;;;;5083059;28;19997;-57
2024/03/12 00:24:36;;;;;;;;;;;;;;;;;;5086082;28;19945;-57
2024/03/12 00:27:01;;;;;;;;;;;;;;;;;;5081224;28;20002;-57
2024/03/12 00:29:26;;;;;;;;;;;;;;;;;;5078727;28;19916;-57
2024/03/12 00:31:52;;;;;;;;;;;;;;;;;;5085771;28;19920;-57
2024/03/12 00:34:17;;;;;;;;;;;;;;;;;;5091165;28;19916;-58
2024/03/12 00:36:43;;;;;;;;;;;;;;;;;;5085321;28;20284;-59
2024/03/12 00:39:10;;;;;;;;;;;;;;;;;;5086401;28;19919;-57
2024/03/12 00:41:35;;;;;;;;;;;;;;;;;;5090243;28;19931;-56
2024/03/12 00:44:00;;;;;;;;;;;;;;;;;;5081718;28;20278;-57
2024/03/12 00:46:25;;;;;;;;;;;;;;;;;;5090638;28;20399;-58
2024/03/12 00:48:50;;;;;;;;;;;;;;;;;;5089344;28;19968;-57
2024/03/12 00:51:18;;;;;;;;;;;;;;;;;;5089618;28;19916;-58
2024/03/12 00:53:44;;;;;;;;;;;;;;;;;;5086683;28;19944;-58
2024/03/12 00:56:09;;;;;;;;;;;;;;;;;;5083958;28;20023;-57
2024/03/12 00:58:36;;;;;;;;;;;;;;;;;;5079393;28;19916;-57
2024/03/12 01:01:03;;;;;;;;;;;;;;;;;;5086345;28;20007;-57
2024/03/12 01:03:29;;;;;;;;;;;;;;;;;;5088950;28;19912;-57
2024/03/12 01:05:54;;;;;;;;;;;;;;;;;;5085384;28;19922;-57
2024/03/12 01:08:20;;;;;;;;;;;;;;;;;;5086905;28;19908;-57
2024/03/12 01:10:45;;;;;;;;;;;;;;;;;;5088202;28;20403;-58
2024/03/12 01:13:10;;;;;;;;;;;;;;;;;;5086670;28;19963;-58
2024/03/12 01:15:36;;;;;;;;;;;;;;;;;;5085382;28;20366;-59
2024/03/12 01:18:01;;;;;;;;;;;;;;;;;;5089325;28;19909;-59
2024/03/12 01:20:26;;;;;;;;;;;;;;;;;;5083511;28;19920;-59
2024/03/12 01:22:51;;;;;;;;;;;;;;;;;;5088087;28;19912;-58
2024/03/12 01:25:16;;;;;;;;;;;;;;;;;;5085436;28;19943;-57
2024/03/12 01:27:42;;;;;;;;;;;;;;;;;;5087307;28;20289;-58
2024/03/12 01:30:07;;;;;;;;;;;;;;;;;;5082751;28;19908;-57
2024/03/12 01:32:32;;;;;;;;;;;;;;;;;;5087702;28;19960;-58
2024/03/12 01:34:57;;;;;;;;;;;;;;;;;;5085626;28;19916;-58
2024/03/12 01:37:24;;;;;;;;;;;;;;;;;;5085229;28;19916;-58
2024/03/12 01:39:52;;;;;;;;;;;;;;;;;;5089892;28;19946;-62
2024/03/12 01:42:18;;;;;;;;;;;;;;;;;;5084072;28;20301;-57
2024/03/12 01:44:43;;;;;;;;;;;;;;;;;;5086669;28;19920;-58
2024/03/12 01:47:08;;;;;;;;;;;;;;;;;;5065860;28;19916;-58
2024/03/12 01:49:34;;;;;;;;;;;;;;;;;;5089687;28;19912;-57
2024/03/12 01:51:59;;;;;;;;;;;;;;;;;;5085759;28;20425;-57
2024/03/12 01:54:24;;;;;;;;;;;;;;;;;;5078969;28;19969;-65
2024/03/12 01:56:49;;;;;;;;;;;;;;;;;;5073326;28;20345;-65
2024/03/12 01:59:15;;;;;;;;;;;;;;;;;;5072271;28;19920;-65
2024/03/12 02:01:41;;;;;;;;;;;;;;;;;;5085466;28;20470;-66
2024/03/12 02:04:06;;;;;;;;;;;;;;;;;;5082695;28;20038;-64
2024/03/12 02:06:31;;;;;;;;;;;;;;;;;;5087934;28;20453;-65
2024/03/12 02:08:56;;;;;;;;;;;;;;;;;;5083630;28;20361;-65
2024/03/12 02:11:21;;;;;;;;;;;;;;;;;;5082568;28;20258;-66
2024/03/12 02:13:50;;;;;;;;;;;;;;;;;;5083085;28;20297;-65
2024/03/12 02:16:15;;;;;;;;;;;;;;;;;;5092849;28;19973;-65
2024/03/12 02:18:40;;;;;;;;;;;;;;;;;;5087476;28;19915;-65
2024/03/12 02:21:05;;;;;;;;;;;;;;;;;;5091365;28;19928;-65
2024/03/12 02:23:31;;;;;;;;;;;;;;;;;;5094891;28;19915;-65
2024/03/12 02:25:56;;;;;;;;;;;;;;;;;;5086544;28;20369;-64
2024/03/12 02:28:21;;;;;;;;;;;;;;;;;;5092055;28;19999;-65
2024/03/12 02:30:46;;;;;;;;;;;;;;;;;;5087159;28;19916;-64
2024/03/12 02:33:14;;;;;;;;;;;;;;;;;;5092752;28;20402;-64
2024/03/12 02:35:39;;;;;;;;;;;;;;;;;;5084145;28;19916;-64
2024/03/12 02:38:05;;;;;;;;;;;;;;;;;;5084089;28;19925;-62
2024/03/12 02:40:30;;;;;;;;;;;;;;;;;;5078202;28;19924;-64
2024/03/12 02:42:56;;;;;;;;;;;;;;;;;;5075605;28;19924;-65
2024/03/12 02:45:23;;;;;;;;;;;;;;;;;;5079903;28;20015;-65
2024/03/12 02:47:48;;;;;;;;;;;;;;;;;;5075836;28;20307;-64
2024/03/12 02:50:13;;;;;;;;;;;;;;;;;;5072138;28;20692;-65
2024/03/12 02:52:38;;;;;;;;;;;;;;;;;;5081156;28;20388;-65
2024/03/12 02:55:04;;;;;;;;;;;;;;;;;;5074484;28;19927;-62
2024/03/12 02:57:29;;;;;;;;;;;;;;;;;;5068472;28;20433;-62
2024/03/12 02:59:54;;;;;;;;;;;;;;;;;;5072641;28;19913;-65
2024/03/12 03:02:19;;;;;;;;;;;;;;;;;;5074156;28;20011;-65
2024/03/12 03:04:44;;;;;;;;;;;;;;;;;;5075358;28;20673;-64
2024/03/12 03:07:11;;;;;;;;;;;;;;;;;;5078188;28;20710;-65
2024/03/12 03:09:36;;;;;;;;;;;;;;;;;;5067892;28;21797;-65
2024/03/12 03:12:01;;;;;;;;;;;;;;;;;;5072491;28;20419;-64
2024/03/12 03:14:26;;;;;;;;;;;;;;;;;;5069940;28;20458;-57
2024/03/12 03:16:54;;;;;;;;;;;;;;;;;;5071135;28;19919;-57
2024/03/12 03:19:19;;;;;;;;;;;;;;;;;;5072685;28;20331;-58
2024/03/12 03:21:44;;;;;;;;;;;;;;;;;;5071802;28;20662;-58
2024/03/12 03:24:09;;;;;;;;;;;;;;;;;;5068442;28;19959;-59
2024/03/12 03:26:34;;;;;;;;;;;;;;;;;;5072796;28;19916;-57
2024/03/12 03:28:59;;;;;;;;;;;;;;;;;;5070603;28;19916;-57
2024/03/12 03:31:24;;;;;;;;;;;;;;;;;;5068876;28;20308;-57
2024/03/12 03:33:50;;;;;;;;;;;;;;;;;;5077795;28;20687;-58
2024/03/12 03:36:16;;;;;;;;;;;;;;;;;;5066938;28;20023;-58
2024/03/12 03:38:42;;;;;;;;;;;;;;;;;;5067183;28;19920;-57
2024/03/12 03:41:07;;;;;;;;;;;;;;;;;;5067405;28;19928;-58
2024/03/12 03:43:32;;;;;;;;;;;;;;;;;;5066458;28;19920;-58
2024/03/12 03:45:57;;;;;;;;;;;;;;;;;;5076285;28;19927;-58
2024/03/12 03:48:22;;;;;;;;;;;;;;;;;;5071509;28;19935;-57
2024/03/12 03:50:47;;;;;;;;;;;;;;;;;;5068836;28;19920;-57
2024/03/12 03:53:13;;;;;;;;;;;;;;;;;;5070995;28;19924;-59
2024/03/12 03:55:38;;;;;;;;;;;;;;;;;;5066861;28;20000;-57
2024/03/12 03:58:04;;;;;;;;;;;;;;;;;;5068980;28;19966;-57
2024/03/12 04:00:32;;;;;;;;;;;;;;;;;;5073833;28;19927;-57
2024/03/12 04:02:57;;;;;;;;;;;;;;;;;;5074668;28;19917;-57
2024/03/12 04:05:22;;;;;;;;;;;;;;;;;;5065179;28;19967;-59
2024/03/12 04:07:48;;;;;;;;;;;;;;;;;;5073706;28;19919;-59
2024/03/12 04:10:15;;;;;;;;;;;;;;;;;;5079307;28;19916;-57
2024/03/12 04:12:40;;;;;;;;;;;;;;;;;;5071336;28;19923;-57
2024/03/12 04:15:05;;;;;;;;;;;;;;;;;;5069672;28;20569;-58
2024/03/12 04:17:30;;;;;;;;;;;;;;;;;;5070292;28;19970;-57
2024/03/12 04:19:55;;;;;;;;;;;;;;;;;;5067410;28;21956;-58
2024/03/12 04:22:20;;;;;;;;;;;;;;;;;;5069485;28;19916;-57
2024/03/12 04:24:46;;;;;;;;;;;;;;;;;;5070259;28;19923;-58
2024/03/12 04:27:15;;;;;;;;;;;;;;;;;;5070875;28;19977;-59
2024/03/12 04:29:40;;;;;;;;;;;;;;;;;;5074452;28;19921;-58
2024/03/12 04:32:05;;;;;;;;;;;;;;;;;;5071494;28;19924;-57
2024/03/12 04:34:32;;;;;;;;;;;;;;;;;;5071572;28;20562;-58
2024/03/12 04:36:58;;;;;;;;;;;;;;;;;;5075316;28;20584;-58
2024/03/12 04:39:32;;;;;;;;;;;;;;;;;;5070530;28;21562;-57
2024/03/12 04:41:57;;;;;;;;;;;;;;;;;;5084767;28;19932;-58
2024/03/12 04:44:22;;;;;;;;;;;;;;;;;;5079440;28;19928;-58
2024/03/12 04:46:48;;;;;;;;;;;;;;;;;;5073555;28;19912;-58
2024/03/12 04:49:13;;;;;;;;;;;;;;;;;;5072796;28;19920;-57
2024/03/12 04:51:40;;;;;;;;;;;;;;;;;;5077714;28;20010;-58
2024/03/12 04:54:06;;;;;;;;;;;;;;;;;;5074907;28;20251;-57
2024/03/12 04:56:32;;;;;;;;;;;;;;;;;;5067414;28;20040;-57
2024/03/12 04:58:57;;;;;;;;;;;;;;;;;;5070175;28;20014;-57
2024/03/12 05:01:22;;;;;;;;;;;;;;;;;;5070812;28;19917;-57
2024/03/12 05:03:47;;;;;;;;;;;;;;;;;;5069868;28;19920;-58
2024/03/12 05:06:12;;;;;;;;;;;;;;;;;;5075227;28;19916;-57
2024/03/12 05:08:38;;;;;;;;;;;;;;;;;;5074843;28;19922;-57
2024/03/12 05:11:03;;;;;;;;;;;;;;;;;;5077688;28;19913;-59
2024/03/12 05:13:28;;;;;;;;;;;;;;;;;;5072000;28;20023;-61
2024/03/12 05:15:53;;;;;;;;;;;;;;;;;;5076526;28;19946;-57
2024/03/12 05:18:19;;;;;;;;;;;;;;;;;;5078752;28;19912;-57
2024/03/12 05:20:44;;;;;;;;;;;;;;;;;;5083233;28;19940;-58
2024/03/12 05:23:10;;;;;;;;;;;;;;;;;;5078287;28;19934;-57
2024/03/12 05:25:42;;;;;;;;;;;;;;;;;;5071235;28;19920;-59
2024/03/12 05:28:08;;;;;;;;;;;;;;;;;;5066722;28;20380;-58
2024/03/12 05:30:35;;;;;;;;;;;;;;;;;;5073963;28;19916;-58
2024/03/12 05:33:04;;;;;;;;;;;;;;;;;;5080783;28;20006;-57
2024/03/12 05:35:31;;;;;;;;;;;;;;;;;;5074644;28;19913;-59
2024/03/12 05:38:02;;;;;;;;;;;;;;;;;;5076462;28;19944;-58
2024/03/12 05:40:42;;;;;;;;;;;;;;;;;;5079578;28;19917;-59
2024/03/12 05:48:35;;;;;;;;;;;;;;;;;;5075953;28;19926;-58
2024/03/12 05:51:01;;;;;;;;;;;;;;;;;;5082509;28;20011;-58
2024/03/12 05:53:26;;;;;;;;;;;;;;;;;;5075605;28;19921;-57
2024/03/12 05:55:51;;;;;;;;;;;;;;;;;;5085008;28;19920;-57
2024/03/12 05:58:16;;;;;;;;;;;;;;;;;;5086188;28;19920;-57
2024/03/12 06:00:41;;;;;;;;;;;;;;;;;;5081078;28;19912;-58
2024/03/12 06:03:06;;;;;;;;;;;;;;;;;;5056715;28;19912;-58
2024/03/12 06:05:32;;;;;;;;;;;;;;;;;;5068524;28;20008;-58
2024/03/12 06:07:59;;;;;;;;;;;;;;;;;;5079942;28;19966;-57
2024/03/12 06:10:25;;;;;;;;;;;;;;;;;;5069932;28;19948;-58
2024/03/12 06:12:50;;;;;;;;;;;;;;;;;;5074218;28;19955;-58
2024/03/12 06:15:16;;;;;;;;;;;;;;;;;;5067585;28;19921;-60
2024/03/12 06:17:41;;;;;;;;;;;;;;;;;;5066826;28;19924;-58
2024/03/12 06:20:06;;;;;;;;;;;;;;;;;;5072293;28;19920;-59
2024/03/12 06:22:31;;;;;;;;;;;;;;;;;;5067004;28;19920;-57
2024/03/12 06:24:57;;;;;;;;;;;;;;;;;;5081695;28;19912;-58
2024/03/12 06:27:22;;;;;;;;;;;;;;;;;;5078869;28;19924;-59
2024/03/12 06:29:51;;;;;;;;;;;;;;;;;;5070771;28;19912;-58
2024/03/12 06:32:20;;;;;;;;;;;;;;;;;;5088781;28;20014;-59
2024/03/12 06:34:45;;;;;;;;;;;;;;;;;;5087110;28;19999;-58
2024/03/12 06:37:11;;;;;;;;;;;;;;;;;;5073070;28;20019;-59
2024/03/12 06:39:36;;;;;;;;;;;;;;;;;;5066529;28;19966;-60
2024/03/12 06:42:01;;;;;;;;;;;;;;;;;;5071256;28;19931;-59
2024/03/12 06:44:26;;;;;;;;;;;;;;;;;;5070771;28;19924;-59
2024/03/12 06:46:52;;;;;;;;;;;;;;;;;;5067856;28;19928;-57
2024/03/12 06:49:19;;;;;;;;;;;;;;;;;;5077750;28;19912;-57
2024/03/12 06:51:47;;;;;;;;;;;;;;;;;;5080549;28;19972;-58
2024/03/12 06:54:12;;;;;;;;;;;;;;;;;;5083052;28;20320;-58
2024/03/12 06:56:42;;;;;;;;;;;;;;;;;;5081105;28;20506;-57
2024/03/12 06:59:08;;;;;;;;;;;;;;;;;;5079415;28;20365;-57
2024/03/12 07:01:40;;;;;;;;;;;;;;;;;;5083352;28;20402;-58
2024/03/12 07:04:06;;;;;;;;;;;;;;;;;;5075723;28;19920;-57
2024/03/12 07:06:32;;;;;;;;;;;;;;;;;;5078928;28;19919;-58
2024/03/12 07:09:01;;;;;;;;;;;;;;;;;;5077508;28;19923;-58
2024/03/12 07:11:26;;;;;;;;;;;;;;;;;;5077225;28;19943;-57
2024/03/12 07:14:01;;;;;;;;;;;;;;;;;;5075813;28;19962;-57
2024/03/12 07:16:27;;;;;;;;;;;;;;;;;;5074831;28;19916;-58
2024/03/12 07:18:52;;;;;;;;;;;;;;;;;;5074626;28;20462;-57
2024/03/12 07:21:17;;;;;;;;;;;;;;;;;;5079129;28;19916;-57
2024/03/12 07:23:42;;;;;;;;;;;;;;;;;;5079234;28;19912;-58
2024/03/12 07:26:07;;;;;;;;;;;;;;;;;;5079112;28;20249;-58
2024/03/12 07:28:33;;;;;;;;;;;;;;;;;;5073160;28;19995;-58
2024/03/12 07:30:58;;;;;;;;;;;;;;;;;;5071904;28;20029;-58
2024/03/12 07:33:23;;;;;;;;;;;;;;;;;;5085755;28;20334;-58
2024/03/12 07:35:48;;;;;;;;;;;;;;;;;;5081709;28;19999;-57
2024/03/12 07:38:14;;;;;;;;;;;;;;;;;;5082689;28;19974;-59
2024/03/12 07:40:41;;;;;;;;;;;;;;;;;;5071027;28;19917;-58
2024/03/12 07:43:06;;;;;;;;;;;;;;;;;;5078765;28;20007;-60
2024/03/12 07:45:31;;;;;;;;;;;;;;;;;;5081251;28;20006;-57
2024/03/12 07:47:56;;;;;;;;;;;;;;;;;;5078788;28;19913;-60
2024/03/12 07:50:21;;;;;;;;;;;;;;;;;;5074901;28;20595;-58
2024/03/12 07:52:47;;;;;;;;;;;;;;;;;;5085703;28;19921;-57
2024/03/12 07:55:12;;;;;;;;;;;;;;;;;;5089263;28;20289;-57
2024/03/12 07:57:37;;;;;;;;;;;;;;;;;;5087492;28;19913;-57
2024/03/12 08:00:05;;;;;;;;;;;;;;;;;;5085701;28;19911;-57
2024/03/12 08:02:30;;;;;;;;;;;;;;;;;;5087292;28;19966;-57
2024/03/12 08:04:56;;;;;;;;;;;;;;;;;;5086473;28;19912;-59
2024/03/12 08:07:21;;;;;;;;;;;;;;;;;;5089167;28;19916;-57
2024/03/12 08:09:50;;;;;;;;;;;;;;;;;;5091308;28;19922;-58
2024/03/12 08:12:15;;;;;;;;;;;;;;;;;;5086574;28;19912;-59
2024/03/12 08:14:40;;;;;;;;;;;;;;;;;;5089461;28;20022;-57
2024/03/12 08:17:05;;;;;;;;;;;;;;;;;;5087136;28;20380;-59
2024/03/12 08:19:30;;;;;;;;;;;;;;;;;;5089170;28;19947;-58
2024/03/12 08:21:55;;;;;;;;;;;;;;;;;;5092315;28;19912;-58
2024/03/12 08:24:21;;;;;;;;;;;;;;;;;;5084744;28;19920;-57
2024/03/12 08:26:47;;;;;;;;;;;;;;;;;;5089580;28;19919;-58
2024/03/12 08:29:12;;;;;;;;;;;;;;;;;;5085818;28;19924;-57
2024/03/12 08:31:38;;;;;;;;;;;;;;;;;;5089740;28;19912;-58
2024/03/12 08:34:03;;;;;;;;;;;;;;;;;;5088965;28;19916;-58
2024/03/12 08:36:28;;;;;;;;;;;;;;;;;;5090605;28;20252;-57
2024/03/12 08:38:54;;;;;;;;;;;;;;;;;;5089237;28;19955;-57
2024/03/12 08:41:19;;;;;;;;;;;;;;;;;;5083473;28;19950;-58
2024/03/12 08:43:44;;;;;;;;;;;;;;;;;;5086921;28;21813;-58
2024/03/12 08:46:10;;;;;;;;;;;;;;;;;;5085143;28;20019;-58
2024/03/12 08:48:35;;;;;;;;;;;;;;;;;;5085076;28;19927;-58
2024/03/12 08:51:02;;;;;;;;;;;;;;;;;;5081541;28;19918;-58
2024/03/12 08:53:27;;;;;;;;;;;;;;;;;;5089416;28;19926;-58
2024/03/12 08:55:52;;;;;;;;;;;;;;;;;;5084410;28;20003;-58
2024/03/12 08:58:17;;;;;;;;;;;;;;;;;;5088023;28;19912;-62
2024/03/12 09:00:43;;;;;;;;;;;;;;;;;;5083413;28;19923;-58
2024/03/12 09:03:08;;;;;;;;;;;;;;;;;;5086664;28;19919;-66
2024/03/12 09:05:36;;;;;;;;;;;;;;;;;;5084365;28;20433;-66
2024/03/12 09:08:04;;;;;;;;;;;;;;;;;;5084428;28;19924;-65
2024/03/12 09:10:29;;;;;;;;;;;;;;;;;;5079130;28;19912;-66
2024/03/12 09:12:54;;;;;;;;;;;;;;;;;;5080379;28;19927;-65
2024/03/12 09:15:21;;;;;;;;;;;;;;;;;;5083206;28;20337;-65
2024/03/12 09:17:47;;;;;;;;;;;;;;;;;;5086673;28;19920;-65
2024/03/12 09:20:12;;;;;;;;;;;;;;;;;;5083041;28;20360;-66
2024/03/12 09:22:37;;;;;;;;;;;;;;;;;;5085733;28;20297;-65
2024/03/12 09:25:04;;;;;;;;;;;;;;;;;;5085431;28;19920;-65
2024/03/12 09:27:30;;;;;;;;;;;;;;;;;;5081284;28;19916;-66
2024/03/12 09:29:56;;;;;;;;;;;;;;;;;;5083380;28;20078;-65
2024/03/12 09:32:21;;;;;;;;;;;;;;;;;;5088675;28;19999;-66
2024/03/12 09:34:47;;;;;;;;;;;;;;;;;;5086509;28;19915;-65
2024/03/12 09:37:15;;;;;;;;;;;;;;;;;;5080899;28;20040;-66
2024/03/12 09:39:40;;;;;;;;;;;;;;;;;;5086060;28;20262;-66
2024/03/12 09:42:07;;;;;;;;;;;;;;;;;;5078320;28;20337;-63
2024/03/12 09:44:32;;;;;;;;;;;;;;;;;;5086001;28;20021;-65
2024/03/12 09:46:58;;;;;;;;;;;;;;;;;;5084119;28;20261;-65
2024/03/12 09:49:23;;;;;;;;;;;;;;;;;;5081762;28;19919;-65
2024/03/12 09:51:50;;;;;;;;;;;;;;;;;;5083665;28;19912;-64
2024/03/12 09:54:15;;;;;;;;;;;;;;;;;;5083971;28;19977;-66
2024/03/12 09:56:41;;;;;;;;;;;;;;;;;;5081444;28;19916;-66
2024/03/12 09:59:08;;;;;;;;;;;;;;;;;;5082547;28;19912;-65
2024/03/12 10:01:33;;;;;;;;;;;;;;;;;;5084567;28;19908;-66
2024/03/12 10:03:58;;;;;;;;;;;;;;;;;;5077570;28;19912;-66
2024/03/12 10:06:25;;;;;;;;;;;;;;;;;;5093379;28;19920;-66
2024/03/12 10:08:50;;;;;;;;;;;;;;;;;;5088959;28;19915;-66
2024/03/12 10:11:15;;;;;;;;;;;;;;;;;;5085444;28;19916;-65
2024/03/12 10:13:40;;;;;;;;;;;;;;;;;;5086563;28;19920;-57
2024/03/12 10:16:06;;;;;;;;;;;;;;;;;;5087876;28;19943;-57
2024/03/12 10:18:34;;;;;;;;;;;;;;;;;;5083373;28;19909;-58
2024/03/12 10:21:01;;;;;;;;;;;;;;;;;;5086501;28;19919;-59
2024/03/12 10:23:26;;;;;;;;;;;;;;;;;;5088897;28;19960;-57
2024/03/12 10:25:51;;;;;;;;;;;;;;;;;;5084504;28;19974;-58
2024/03/12 10:28:19;;;;;;;;;;;;;;;;;;5085167;28;19911;-57
2024/03/12 10:30:45;;;;;;;;;;;;;;;;;;5075186;28;20007;-58
2024/03/12 10:33:11;;;;;;;;;;;;;;;;;;5083137;28;19923;-59
2024/03/12 10:35:36;;;;;;;;;;;;;;;;;;5084782;28;19912;-60
2024/03/12 10:38:01;;;;;;;;;;;;;;;;;;5080459;28;19920;-58
2024/03/12 10:40:27;;;;;;;;;;;;;;;;;;5082362;28;19920;-58
2024/03/12 10:42:52;;;;;;;;;;;;;;;;;;5082031;28;19944;-58
2024/03/12 10:45:18;;;;;;;;;;;;;;;;;;5083489;28;19970;-58
2024/03/12 10:47:43;;;;;;;;;;;;;;;;;;5083229;28;19966;-59
2024/03/12 10:50:10;;;;;;;;;;;;;;;;;;5084514;28;20362;-58
2024/03/12 10:52:35;;;;;;;;;;;;;;;;;;5080325;28;20486;-57
2024/03/12 10:55:03;;;;;;;;;;;;;;;;;;5084674;28;20601;-57
2024/03/12 10:57:30;;;;;;;;;;;;;;;;;;5085576;28;19919;-58
2024/03/12 10:59:58;;;;;;;;;;;;;;;;;;5084629;28;19916;-60
2024/03/12 11:02:23;;;;;;;;;;;;;;;;;;5080572;28;19920;-59
2024/03/12 11:04:52;;;;;;;;;;;;;;;;;;5086405;28;19912;-59
2024/03/12 11:07:18;;;;;;;;;;;;;;;;;;5080762;28;19913;-59
2024/03/12 11:09:43;;;;;;;;;;;;;;;;;;5086058;28;20560;-58
2024/03/12 11:12:09;;;;;;;;;;;;;;;;;;5085631;28;19923;-59
2024/03/12 11:14:35;;;;;;;;;;;;;;;;;;5085663;28;20264;-59
2024/03/12 11:17:00;;;;;;;;;;;;;;;;;;5086102;28;19913;-59
2024/03/12 11:19:26;;;;;;;;;;;;;;;;;;5079916;28;19916;-59
2024/03/12 11:21:51;;;;;;;;;;;;;;;;;;5076606;28;19920;-59
2024/03/12 11:24:16;;;;;;;;;;;;;;;;;;5077107;28;20000;-67
2024/03/12 11:26:41;;;;;;;;;;;;;;;;;;5080866;28;20403;-66
2024/03/12 11:29:07;;;;;;;;;;;;;;;;;;5078013;28;19920;-66
2024/03/12 11:31:34;;;;;;;;;;;;;;;;;;5081147;28;19916;-66
2024/03/12 11:33:59;;;;;;;;;;;;;;;;;;5081615;28;19943;-67
2024/03/12 11:36:24;;;;;;;;;;;;;;;;;;5083147;28;19943;-67
2024/03/12 11:38:51;;;;;;;;;;;;;;;;;;5078673;28;19938;-64
2024/03/12 11:41:16;;;;;;;;;;;;;;;;;;5088285;28;19931;-67
2024/03/12 11:43:42;;;;;;;;;;;;;;;;;;5081293;28;19913;-66
2024/03/12 11:46:07;;;;;;;;;;;;;;;;;;5081384;28;19927;-67
2024/03/12 11:48:32;;;;;;;;;;;;;;;;;;5084842;28;19947;-67
2024/03/12 11:50:59;;;;;;;;;;;;;;;;;;5079546;28;19962;-66
2024/03/12 11:53:25;;;;;;;;;;;;;;;;;;5077453;28;19916;-66
2024/03/12 11:55:50;;;;;;;;;;;;;;;;;;5084728;28;19966;-66
2024/03/12 11:58:16;;;;;;;;;;;;;;;;;;5082553;28;19920;-66
2024/03/12 12:00:41;;;;;;;;;;;;;;;;;;5078895;28;19912;-66
2024/03/12 12:03:06;;;;;;;;;;;;;;;;;;5087333;28;19920;-66
2024/03/12 12:05:31;;;;;;;;;;;;;;;;;;5076126;28;19912;-66
2024/03/12 12:07:57;;;;;;;;;;;;;;;;;;5080961;28;19923;-66
2024/03/12 12:10:22;;;;;;;;;;;;;;;;;;5082409;28;19913;-66
2024/03/12 12:12:47;;;;;;;;;;;;;;;;;;5087812;28;19947;-67
2024/03/12 12:15:13;;;;;;;;;;;;;;;;;;5078603;28;19916;-67
2024/03/12 12:17:38;;;;;;;;;;;;;;;;;;5082327;28;20129;-66
2024/03/12 12:20:04;;;;;;;;;;;;;;;;;;5084685;28;20040;-66
2024/03/12 12:22:30;;;;;;;;;;;;;;;;;;5082261;28;19912;-66
2024/03/12 12:24:56;;;;;;;;;;;;;;;;;;5083460;28;20573;-66
2024/03/12 12:27:21;;;;;;;;;;;;;;;;;;5079970;28;19912;-67
2024/03/12 12:29:46;;;;;;;;;;;;;;;;;;5081497;28;19916;-65
2024/03/12 12:32:14;;;;;;;;;;;;;;;;;;5082225;28;19916;-66
2024/03/12 12:34:40;;;;;;;;;;;;;;;;;;5084831;28;19938;-59
2024/03/12 12:37:09;;;;;;;;;;;;;;;;;;5086639;28;19913;-61
2024/03/12 12:39:34;;;;;;;;;;;;;;;;;;5090413;28;19939;-59
2024/03/12 12:41:59;;;;;;;;;;;;;;;;;;5084723;28;19964;-60
2024/03/12 12:44:27;;;;;;;;;;;;;;;;;;5086159;28;20396;-66
2024/03/12 12:46:54;;;;;;;;;;;;;;;;;;5065540;28;21349;-67
2024/03/12 12:49:20;;;;;;;;;;;;;;;;;;5084986;28;19912;-67
2024/03/12 12:51:46;;;;;;;;;;;;;;;;;;5088334;28;19921;-66
2024/03/12 12:54:14;;;;;;;;;;;;;;;;;;5082533;28;19921;-67
2024/03/12 12:56:39;;;;;;;;;;;;;;;;;;5088185;28;19916;-66
2024/03/12 12:59:04;;;;;;;;;;;;;;;;;;5087378;28;19912;-67
2024/03/12 13:01:30;;;;;;;;;;;;;;;;;;5087521;28;19912;-67
2024/03/12 13:03:55;;;;;;;;;;;;;;;;;;5088795;28;19913;-66
2024/03/12 13:06:21;;;;;;;;;;;;;;;;;;5085777;28;19956;-66
2024/03/12 13:08:46;;;;;;;;;;;;;;;;;;5086418;28;19923;-66
2024/03/12 13:11:12;;;;;;;;;;;;;;;;;;5087770;28;19916;-66
2024/03/12 13:13:37;;;;;;;;;;;;;;;;;;5089799;28;19928;-66
2024/03/12 13:16:02;;;;;;;;;;;;;;;;;;5086169;28;19920;-66
2024/03/12 13:18:27;;;;;;;;;;;;;;;;;;5085959;28;19916;-66
2024/03/12 13:20:53;;;;;;;;;;;;;;;;;;5083304;28;19916;-66
2024/03/12 13:23:18;;;;;;;;;;;;;;;;;;5085554;28;19922;-66
2024/03/12 13:25:45;;;;;;;;;;;;;;;;;;5085648;28;19996;-65
2024/03/12 13:28:10;;;;;;;;;;;;;;;;;;5083750;28;19920;-65
2024/03/12 13:30:35;;;;;;;;;;;;;;;;;;5086753;28;19927;-66
2024/03/12 13:33:00;;;;;;;;;;;;;;;;;;5079173;28;19955;-66
2024/03/12 13:35:27;;;;;;;;;;;;;;;;;;5088553;28;20293;-63
2024/03/12 13:37:53;;;;;;;;;;;;;;;;;;5079558;28;19912;-66
2024/03/12 13:40:19;;;;;;;;;;;;;;;;;;5086125;28;19932;-67
2024/03/12 13:42:44;;;;;;;;;;;;;;;;;;5082459;28;20442;-66
2024/03/12 13:45:09;;;;;;;;;;;;;;;;;;5084292;28;19916;-67
2024/03/12 13:47:36;;;;;;;;;;;;;;;;;;5083989;28;19966;-67
2024/03/12 13:50:02;;;;;;;;;;;;;;;;;;5089673;28;20231;-66
2024/03/12 13:52:27;;;;;;;;;;;;;;;;;;5085645;28;19921;-67
2024/03/12 13:54:53;;;;;;;;;;;;;;;;;;5082091;28;20363;-67
2024/03/12 13:57:19;;;;;;;;;;;;;;;;;;5086551;28;20280;-66
2024/03/12 13:59:44;;;;;;;;;;;;;;;;;;5085828;28;20396;-67
2024/03/12 14:02:10;;;;;;;;;;;;;;;;;;5083909;28;19917;-66
2024/03/12 14:04:35;;;;;;;;;;;;;;;;;;5088197;28;19951;-67
2024/03/12 14:07:01;;;;;;;;;;;;;;;;;;5081760;28;20393;-67
2024/03/12 14:09:27;;;;;;;;;;;;;;;;;;5083149;28;19916;-67
2024/03/12 14:11:52;;;;;;;;;;;;;;;;;;5086263;28;19922;-67
2024/03/12 14:14:17;;;;;;;;;;;;;;;;;;5080669;28;20015;-67
2024/03/12 14:16:43;;;;;;;;;;;;;;;;;;5086556;28;19943;-66
2024/03/12 14:19:08;;;;;;;;;;;;;;;;;;5089884;28;19915;-67
2024/03/12 14:21:34;;;;;;;;;;;;;;;;;;5085604;28;19908;-67
2024/03/12 14:24:00;;;;;;;;;;;;;;;;;;5084919;28;19919;-66
2024/03/12 14:26:25;;;;;;;;;;;;;;;;;;5086539;28;20387;-65
2024/03/12 14:28:51;;;;;;;;;;;;;;;;;;5077933;28;19944;-67
2024/03/12 14:31:16;;;;;;;;;;;;;;;;;;5085077;28;19912;-67
2024/03/12 14:33:41;;;;;;;;;;;;;;;;;;5092842;28;20322;-68
2024/03/12 14:36:07;;;;;;;;;;;;;;;;;;5077275;28;20446;-65
2024/03/12 14:38:32;;;;;;;;;;;;;;;;;;5085121;28;19912;-65
2024/03/12 14:40:58;;;;;;;;;;;;;;;;;;5085857;28;19928;-65
2024/03/12 14:43:25;;;;;;;;;;;;;;;;;;5076735;28;20395;-65
2024/03/12 14:45:51;;;;;;;;;;;;;;;;;;5085692;28;19913;-65
2024/03/12 14:48:16;;;;;;;;;;;;;;;;;;5083359;28;19939;-66
2024/03/12 14:50:42;;;;;;;;;;;;;;;;;;5079822;28;20261;-66
2024/03/12 14:53:07;;;;;;;;;;;;;;;;;;5084110;28;19969;-65
2024/03/12 14:55:32;;;;;;;;;;;;;;;;;;5079282;28;19919;-65
2024/03/12 14:57:58;;;;;;;;;;;;;;;;;;5081268;28;19912;-66
2024/03/12 15:00:23;;;;;;;;;;;;;;;;;;5082789;28;19920;-66
2024/03/12 15:02:48;;;;;;;;;;;;;;;;;;5084487;28;19951;-64
2024/03/12 15:05:14;;;;;;;;;;;;;;;;;;5083510;28;20258;-65
2024/03/12 15:07:43;;;;;;;;;;;;;;;;;;5085315;28;19927;-65
2024/03/12 15:10:11;;;;;;;;;;;;;;;;;;5078236;28;19924;-65
2024/03/12 15:12:39;;;;;;;;;;;;;;;;;;5079771;28;19913;-66
2024/03/12 15:15:04;;;;;;;;;;;;;;;;;;5080772;28;19916;-58
2024/03/12 15:17:29;;;;;;;;;;;;;;;;;;5078915;28;19919;-57
2024/03/12 15:19:55;;;;;;;;;;;;;;;;;;5084993;28;19908;-57
2024/03/12 15:22:21;;;;;;;;;;;;;;;;;;5082674;28;19912;-57
2024/03/12 15:24:46;;;;;;;;;;;;;;;;;;5086640;28;19912;-58
2024/03/12 15:27:11;;;;;;;;;;;;;;;;;;5077160;28;20327;-59
2024/03/12 15:29:36;;;;;;;;;;;;;;;;;;5080533;28;20412;-58
2024/03/12 15:32:01;;;;;;;;;;;;;;;;;;5074309;28;19960;-60
2024/03/12 15:34:27;;;;;;;;;;;;;;;;;;5070323;28;19952;-58
2024/03/12 15:36:52;;;;;;;;;;;;;;;;;;5072371;28;19912;-59
2024/03/12 15:39:17;;;;;;;;;;;;;;;;;;5074419;28;19913;-57
2024/03/12 15:41:44;;;;;;;;;;;;;;;;;;5078078;28;19928;-57
2024/03/12 15:44:09;;;;;;;;;;;;;;;;;;5077229;28;19966;-58
2024/03/12 15:46:34;;;;;;;;;;;;;;;;;;5077299;28;19969;-60
2024/03/12 15:49:00;;;;;;;;;;;;;;;;;;5073913;28;19919;-58
2024/03/12 15:51:27;;;;;;;;;;;;;;;;;;5075880;28;19962;-59
2024/03/12 15:53:52;;;;;;;;;;;;;;;;;;5075573;28;20492;-57
2024/03/12 15:56:17;;;;;;;;;;;;;;;;;;5074720;28;20539;-58
2024/03/12 15:58:44;;;;;;;;;;;;;;;;;;5066926;28;20284;-59
2024/03/12 16:01:09;;;;;;;;;;;;;;;;;;5069084;28;20631;-58
2024/03/12 16:03:35;;;;;;;;;;;;;;;;;;5072204;28;19928;-57
2024/03/12 16:06:01;;;;;;;;;;;;;;;;;;5073649;28;19995;-59
2024/03/12 16:08:27;;;;;;;;;;;;;;;;;;5073829;28;19923;-60
2024/03/12 16:10:52;;;;;;;;;;;;;;;;;;5077451;28;19916;-57
2024/03/12 16:13:17;;;;;;;;;;;;;;;;;;5082327;28;20029;-58
2024/03/12 16:15:43;;;;;;;;;;;;;;;;;;5076922;28;19920;-58
2024/03/12 16:18:09;;;;;;;;;;;;;;;;;;5080868;28;19948;-58
2024/03/12 16:20:36;;;;;;;;;;;;;;;;;;5072865;28;19954;-58
2024/03/12 16:23:02;;;;;;;;;;;;;;;;;;5086034;28;20373;-58
2024/03/12 16:25:27;;;;;;;;;;;;;;;;;;5084902;28;19916;-58
2024/03/12 16:27:52;;;;;;;;;;;;;;;;;;5080202;28;19916;-57
2024/03/12 16:30:18;;;;;;;;;;;;;;;;;;5078987;28;20355;-58
2024/03/12 16:32:43;;;;;;;;;;;;;;;;;;5084990;28;19999;-58
2024/03/12 16:35:08;;;;;;;;;;;;;;;;;;5084452;28;19920;-60
2024/03/12 16:37:34;;;;;;;;;;;;;;;;;;5083268;28;19923;-59
2024/03/12 16:39:59;;;;;;;;;;;;;;;;;;5086691;28;19916;-58